Time;durP1;ratioP1;P1;durP2;ratioP2;P2;SDS_P1;SDS_P2;PMS_P1;PMS_P2;Temp;Humidity;BMP_temperature;BMP_pressure;BME280_temperature;BME280_humidity;BME280_pressure;Samples;Min_cycle;Max_cycle;Signal;HPM_P1;HPM_P2
2021/04/21 00:01:21;;;;;;;;;;;6.90;85.10;;;;;;5054721;28;20068;-64
2021/04/21 00:03:52;;;;;;;6.10;2.65;;;6.90;85.70;;;;;;5055672;28;19947;-64
2021/04/21 00:06:24;;;;;;;5.75;3.72;;;6.80;86.00;;;;;;5050680;28;20086;-64
2021/04/21 00:08:55;;;;;;;13.27;3.33;;;6.80;86.50;;;;;;5049254;28;20049;-65
2021/04/21 00:11:26;;;;;;;6.30;3.33;;;6.70;86.30;;;;;;5049812;28;20549;-64
2021/04/21 00:13:56;;;;;;;6.60;3.17;;;6.60;87.00;;;;;;5058634;28;20039;-64
2021/04/21 00:16:31;;;;;;;7.38;4.03;;;6.70;87.00;;;;;;5040803;28;20240;-65
2021/04/21 00:19:05;;;;;;;8.18;3.72;;;6.60;87.00;;;;;;5052679;28;20135;-65
2021/04/21 00:21:38;;;;;;;7.28;3.65;;;6.60;87.00;;;;;;5036887;28;20094;-65
2021/04/21 00:24:16;;;;;;;5.05;2.88;;;6.60;86.80;;;;;;5058084;28;20248;-64
2021/04/21 00:26:47;;;;;;;8.23;2.70;;;6.50;86.60;;;;;;5060223;28;20128;-65
2021/04/21 00:29:19;;;;;;;4.60;2.53;;;6.60;85.90;;;;;;5053061;28;20045;-64
2021/04/21 00:31:52;;;;;;;6.28;2.53;;;6.50;86.00;;;;;;5054349;28;20087;-64
2021/04/21 00:34:23;;;;;;;6.40;3.08;;;6.40;86.10;;;;;;5050250;28;20049;-64
2021/04/21 00:36:56;;;;;;;5.50;2.38;;;6.30;86.60;;;;;;5058215;28;20055;-64
2021/04/21 00:39:29;;;;;;;5.18;2.30;;;6.20;86.90;;;;;;5052038;28;20065;-65
2021/04/21 00:42:06;;;;;;;8.00;3.22;;;6.20;87.20;;;;;;5049981;28;20045;-65
2021/04/21 00:44:42;;;;;;;6.82;2.88;;;6.20;87.20;;;;;;5030563;28;20042;-64
2021/04/21 00:47:32;;;;;;;6.60;2.90;;;6.20;87.10;;;;;;5053414;28;20355;-64
2021/04/21 00:50:11;;;;;;;5.57;2.60;;;6.20;87.20;;;;;;5044327;28;20060;-65
2021/04/21 00:52:49;;;;;;;6.82;3.13;;;6.20;87.10;;;;;;5044025;28;20045;-63
2021/04/21 00:55:31;;;;;;;4.40;2.63;;;6.10;87.30;;;;;;5042783;28;20065;-65
2021/04/21 00:58:08;;;;;;;5.32;2.67;;;6.10;87.30;;;;;;5039845;28;20073;-65
2021/04/21 01:00:43;;;;;;;8.77;2.47;;;6.00;87.10;;;;;;5051073;28;20053;-66
2021/04/21 01:03:20;;;;;;;4.70;2.60;;;6.00;87.00;;;;;;5059139;28;20044;-65
2021/04/21 01:05:57;;;;;;;4.25;1.95;;;6.00;86.60;;;;;;5058520;28;20057;-65
2021/04/21 01:08:32;;;;;;;5.68;2.53;;;5.90;87.10;;;;;;5039965;28;20049;-65
2021/04/21 01:11:08;;;;;;;6.28;2.90;;;5.90;86.80;;;;;;5058488;28;20056;-65
2021/04/21 01:13:43;;;;;;;4.13;1.88;;;5.90;87.00;;;;;;5061097;28;20045;-65
2021/04/21 01:16:14;;;;;;;4.93;2.55;;;5.90;86.90;;;;;;5057079;28;20049;-65
2021/04/21 01:19:21;;;;;;;5.25;2.67;;;5.90;87.10;;;;;;5054903;28;20344;-65
2021/04/21 01:21:56;;;;;;;6.07;2.28;;;5.80;87.60;;;;;;5051218;28;20048;-64
2021/04/21 01:24:36;;;;;;;5.80;2.78;;;5.70;87.90;;;;;;5059493;28;20045;-65
2021/04/21 01:27:07;;;;;;;;;;;5.70;87.80;;;;;;5051604;28;20064;-64
2021/04/21 01:29:42;;;;;;;4.05;1.92;;;5.70;88.10;;;;;;5054147;28;19917;-64
2021/04/21 01:32:19;;;;;;;4.57;2.58;;;5.70;87.90;;;;;;5058435;28;20239;-64
2021/04/21 01:34:50;;;;;;;3.08;2.13;;;5.70;87.70;;;;;;5057052;28;20045;-64
2021/04/21 01:37:24;;;;;;;9.20;3.50;;;5.70;87.60;;;;;;5058579;28;20052;-64
2021/04/21 01:39:58;;;;;;;8.15;3.45;;;5.70;88.00;;;;;;5041327;28;20060;-64
2021/04/21 01:42:32;;;;;;;4.97;2.58;;;5.60;88.00;;;;;;5064759;28;20063;-65
2021/04/21 01:45:05;;;;;;;7.47;2.92;;;5.50;88.30;;;;;;5050125;28;20056;-65
2021/04/21 01:47:36;;;;;;;8.07;3.47;;;5.50;88.50;;;;;;5055524;28;20061;-64
2021/04/21 01:50:06;;;;;;;12.30;3.63;;;5.50;88.70;;;;;;5060583;28;20045;-65
2021/04/21 01:52:55;;;;;;;6.47;3.90;;;5.50;88.60;;;;;;5053810;28;20052;-65
2021/04/21 01:55:53;;;;;;;5.43;2.95;;;5.40;88.70;;;;;;5052530;28;20049;-64
2021/04/21 01:58:36;;;;;;;6.68;2.95;;;5.40;88.60;;;;;;5064292;28;20048;-64
2021/04/21 02:01:18;;;;;;;8.05;3.15;;;5.30;88.60;;;;;;5056076;28;20407;-65
2021/04/21 02:03:53;;;;;;;5.38;2.70;;;5.30;88.50;;;;;;5060437;28;20052;-65
2021/04/21 02:06:58;;;;;;;6.45;2.60;;;5.30;88.20;;;;;;5055940;28;20402;-64
2021/04/21 02:10:00;;;;;;;5.40;2.95;;;5.20;88.10;;;;;;5062524;28;20053;-64
2021/04/21 02:13:06;;;;;;;5.47;2.83;;;5.20;87.90;;;;;;5061282;28;20060;-65
2021/04/21 02:15:53;;;;;;;7.07;3.03;;;5.20;88.30;;;;;;5040486;28;20347;-64
2021/04/21 02:18:41;;;;;;;4.97;2.58;;;5.20;88.50;;;;;;5064453;28;20375;-64
2021/04/21 02:21:16;;;;;;;5.72;3.13;;;5.10;88.50;;;;;;5057474;28;20072;-64
2021/04/21 02:23:52;;;;;;;4.50;2.35;;;5.00;88.60;;;;;;5059380;28;20119;-65
2021/04/21 02:26:28;;;;;;;4.15;2.30;;;5.00;88.50;;;;;;5068543;28;20053;-64
2021/04/21 02:29:02;;;;;;;7.28;2.78;;;5.00;88.60;;;;;;5056420;28;20159;-63
2021/04/21 02:31:48;;;;;;;6.13;2.35;;;4.90;88.30;;;;;;5062817;28;20045;-64
2021/04/21 02:34:25;;;;;;;4.38;2.10;;;5.00;88.50;;;;;;5061968;28;20052;-65
2021/04/21 02:37:06;;;;;;;5.43;2.45;;;4.90;88.60;;;;;;5053517;28;20036;-64
2021/04/21 02:39:40;;;;;;;5.43;2.40;;;4.90;88.60;;;;;;5059334;28;20053;-65
2021/04/21 02:42:14;;;;;;;5.63;2.50;;;4.80;88.90;;;;;;5060344;28;20049;-65
2021/04/21 02:44:54;;;;;;;4.57;2.35;;;4.80;89.00;;;;;;5061450;28;20061;-64
2021/04/21 02:47:24;;;;;;;;;;;4.80;89.10;;;;;;5064116;28;20080;-64
2021/04/21 02:50:09;;;;;;;4.45;2.28;;;4.80;88.90;;;;;;5064851;28;20258;-64
2021/04/21 02:52:51;;;;;;;5.20;2.50;;;4.80;88.80;;;;;;5040543;28;20048;-65
2021/04/21 02:55:27;;;;;;;6.47;2.47;;;4.70;89.10;;;;;;5055412;28;20099;-64
2021/04/21 02:58:03;;;;;;;5.35;2.95;;;4.70;89.30;;;;;;5057229;28;20061;-64
2021/04/21 03:00:37;;;;;;;6.32;2.40;;;4.70;89.60;;;;;;5050969;28;20248;-64
2021/04/21 03:03:14;;;;;;;8.23;2.95;;;4.70;89.70;;;;;;5063810;28;20061;-65
2021/04/21 03:05:48;;;;;;;8.48;2.55;;;4.70;89.80;;;;;;5064310;28;20356;-63
2021/04/21 03:08:24;;;;;;;4.97;2.10;;;4.60;90.00;;;;;;5062900;28;20217;-64
2021/04/21 03:10:59;;;;;;;4.60;2.58;;;4.60;90.00;;;;;;5072145;28;20078;-65
2021/04/21 03:13:30;;;;;;;6.00;2.85;;;4.60;90.20;;;;;;5054156;28;20461;-65
2021/04/21 03:15:59;;;;;;;;;;;4.70;90.50;;;;;;5067482;28;20044;-64
2021/04/21 03:18:28;;;;;;;6.28;3.15;;;4.60;90.50;;;;;;5071152;28;19971;-64
2021/04/21 03:21:02;;;;;;;6.50;3.20;;;4.60;90.40;;;;;;5059135;28;20072;-64
2021/04/21 03:23:31;;;;;;;7.53;2.83;;;4.50;90.50;;;;;;5044574;28;20057;-64
2021/04/21 03:26:02;;;;;;;6.63;3.67;;;4.50;90.50;;;;;;5047904;28;20139;-65
2021/04/21 03:28:35;;;;;;;6.35;3.08;;;4.40;90.80;;;;;;5048129;28;20051;-64
2021/04/21 03:31:06;;;;;;;6.47;2.97;;;4.50;90.50;;;;;;5045728;28;20122;-64
2021/04/21 03:33:38;;;;;;;7.15;3.15;;;4.50;90.10;;;;;;5030515;28;20510;-64
2021/04/21 03:36:08;;;;;;;5.03;2.35;;;4.50;89.70;;;;;;5048466;28;20060;-64
2021/04/21 03:38:36;;;;;;;6.13;2.95;;;4.40;89.60;;;;;;5044612;28;20057;-65
2021/04/21 03:41:04;;;;;;;5.13;2.72;;;4.50;89.40;;;;;;5048902;28;20049;-65
2021/04/21 03:43:32;;;;;;;12.32;3.38;;;4.40;89.30;;;;;;5046591;28;20120;-65
2021/04/21 03:46:02;;;;;;;7.70;3.38;;;4.40;89.80;;;;;;5045621;28;20056;-64
2021/04/21 03:48:32;;;;;;;4.15;2.78;;;4.30;89.90;;;;;;5047638;28;20055;-63
2021/04/21 03:51:00;;;;;;;6.57;3.13;;;4.30;90.10;;;;;;5042729;28;20057;-64
2021/04/21 03:53:33;;;;;;;6.85;2.70;;;4.20;90.20;;;;;;5045828;28;20057;-64
2021/04/21 03:56:05;;;;;;;6.68;3.75;;;4.20;90.50;;;;;;5044655;28;20351;-64
2021/04/21 03:58:33;;;;;;;7.50;3.00;;;4.20;90.50;;;;;;5043708;28;20244;-65
2021/04/21 04:01:18;;;;;;;5.20;2.70;;;4.20;90.50;;;;;;5040966;28;20063;-64
2021/04/21 04:03:52;;;;;;;4.97;2.33;;;4.30;90.10;;;;;;5042377;28;20044;-65
2021/04/21 04:06:23;;;;;;;5.35;2.55;;;4.30;90.10;;;;;;5041421;28;20086;-65
2021/04/21 04:08:56;;;;;;;5.80;3.17;;;4.30;89.90;;;;;;5043752;28;20315;-64
2021/04/21 04:11:32;;;;;;;7.72;3.65;;;4.30;89.80;;;;;;5038799;28;20071;-65
2021/04/21 04:14:05;;;;;;;8.05;3.00;;;4.30;89.90;;;;;;5045050;28;20103;-65
2021/04/21 04:16:33;;;;;;;10.50;4.28;;;4.30;90.10;;;;;;5040611;28;20092;-65
2021/04/21 04:19:01;;;;;;;5.07;2.38;;;4.30;90.30;;;;;;5044045;28;20310;-64
2021/04/21 04:21:33;;;;;;;9.60;3.92;;;4.30;90.20;;;;;;5040294;28;20057;-64
2021/04/21 04:24:03;;;;;;;8.05;3.00;;;4.20;90.50;;;;;;5041219;28;20263;-65
2021/04/21 04:26:36;;;;;;;7.65;3.05;;;4.20;90.60;;;;;;5043186;28;20235;-65
2021/04/21 04:29:11;;;;;;;5.65;3.05;;;4.10;90.80;;;;;;5043680;28;20077;-65
2021/04/21 04:31:40;;;;;;;5.30;2.55;;;4.20;91.10;;;;;;5043240;28;20055;-64
2021/04/21 04:34:11;;;;;;;5.40;2.58;;;4.20;91.00;;;;;;5039094;28;20056;-65
2021/04/21 04:36:41;;;;;;;7.82;3.35;;;4.20;91.20;;;;;;5021257;28;20049;-64
2021/04/21 04:39:11;;;;;;;6.07;3.45;;;4.20;91.20;;;;;;5045833;28;20048;-65
2021/04/21 04:41:40;;;;;;;6.53;3.40;;;4.20;90.80;;;;;;5047857;28;20061;-66
2021/04/21 04:44:12;;;;;;;7.18;3.55;;;4.30;90.40;;;;;;5046916;28;20060;-65
2021/04/21 04:46:42;;;;;;;;;;;4.30;90.50;;;;;;5024252;28;20052;-65
2021/04/21 04:49:14;;;;;;;6.18;4.93;;;4.40;90.20;;;;;;5023118;28;20007;-64
2021/04/21 04:51:45;;;;;;;7.05;3.42;;;4.40;90.20;;;;;;5028702;28;20049;-64
2021/04/21 04:54:16;;;;;;;5.97;3.40;;;4.40;90.20;;;;;;5028207;28;20296;-64
2021/04/21 04:56:46;;;;;;;9.40;3.67;;;4.40;90.30;;;;;;5042889;28;20063;-65
2021/04/21 04:59:16;;;;;;;8.63;4.13;;;4.40;90.20;;;;;;5048141;28;20061;-65
2021/04/21 05:01:55;;;;;;;5.75;3.22;;;4.40;90.40;;;;;;5037854;28;20049;-65
2021/04/21 05:04:28;;;;;;;8.20;3.88;;;4.30;90.40;;;;;;5042623;28;20049;-64
2021/04/21 05:07:03;;;;;;;6.90;3.22;;;4.30;90.70;;;;;;5044830;28;20107;-65
2021/04/21 05:09:42;;;;;;;10.05;3.75;;;4.30;90.80;;;;;;5042058;28;20112;-65
2021/04/21 05:12:19;;;;;;;9.00;4.53;;;4.30;91.00;;;;;;5024953;28;20073;-64
2021/04/21 05:14:54;;;;;;;6.93;3.58;;;4.40;91.20;;;;;;5043656;28;20155;-65
2021/04/21 05:18:00;;;;;;;8.23;4.20;;;4.40;91.30;;;;;;5030242;28;20065;-65
2021/04/21 05:21:14;;;;;;;5.55;2.83;;;4.50;91.40;;;;;;5047713;28;20044;-64
2021/04/21 05:24:22;;;;;;;5.50;3.08;;;4.50;90.80;;;;;;5017307;28;20164;-64
2021/04/21 05:27:25;;;;;;;7.32;3.17;;;4.60;90.10;;;;;;5047382;28;20263;-64
2021/04/21 05:30:26;;;;;;;5.55;2.83;;;4.60;89.90;;;;;;5030009;28;20060;-64
2021/04/21 05:33:27;;;;;;;5.03;2.97;;;4.70;90.00;;;;;;5047659;28;20110;-64
2021/04/21 05:36:36;;;;;;;7.63;3.75;;;4.80;89.60;;;;;;5023474;28;20052;-66
2021/04/21 05:39:36;;;;;;;8.57;3.90;;;5.00;89.90;;;;;;5046000;28;20045;-65
2021/04/21 05:42:48;;;;;;;8.70;3.72;;;5.10;89.80;;;;;;5049720;28;20040;-65
2021/04/21 05:45:49;;;;;;;8.05;3.65;;;5.20;89.70;;;;;;5045894;28;20348;-65
2021/04/21 05:49:00;;;;;;;10.20;3.90;;;5.20;89.70;;;;;;5043847;28;20056;-65
2021/04/21 05:52:02;;;;;;;7.13;3.72;;;5.20;89.70;;;;;;5006000;28;20091;-65
2021/04/21 05:55:07;;;;;;;7.70;3.70;;;5.30;89.50;;;;;;5006884;28;20344;-65
2021/04/21 05:58:20;;;;;;;11.52;4.05;;;5.30;89.50;;;;;;5042275;28;20327;-65
2021/04/21 06:01:23;;;;;;;8.00;3.38;;;5.40;89.50;;;;;;5017313;28;20371;-65
2021/04/21 06:03:53;;;;;;;7.20;3.50;;;5.60;89.20;;;;;;5044101;28;20056;-64
2021/04/21 06:06:21;;;;;;;8.80;4.18;;;5.70;88.90;;;;;;5043445;28;20057;-64
2021/04/21 06:08:48;;;;;;;8.25;4.40;;;5.70;88.80;;;;;;5023927;28;20045;-64
2021/04/21 06:11:22;;;;;;;7.88;4.13;;;5.70;88.60;;;;;;5042628;28;20105;-64
2021/04/21 06:13:54;;;;;;;6.80;3.75;;;5.80;88.40;;;;;;5046026;28;20095;-65
2021/04/21 06:16:22;;;;;;;8.70;4.75;;;5.90;88.30;;;;;;5049217;28;20049;-65
2021/04/21 06:18:56;;;;;;;9.35;4.55;;;5.90;88.10;;;;;;5047066;28;20169;-65
2021/04/21 06:21:25;;;;;;;12.18;4.72;;;6.00;87.90;;;;;;5050635;28;20240;-65
2021/04/21 06:23:57;;;;;;;8.13;5.05;;;6.10;87.90;;;;;;5062156;28;20049;-64
2021/04/21 06:26:25;;;;;;;11.55;4.45;;;6.10;88.00;;;;;;5041705;28;20063;-64
2021/04/21 06:29:00;;;;;;;9.82;4.65;;;6.20;88.00;;;;;;5051868;28;20057;-63
2021/04/21 06:31:35;;;;;;;9.75;4.50;;;6.30;88.10;;;;;;5052916;28;20352;-65
2021/04/21 06:34:03;;;;;;;8.60;4.68;;;6.40;88.20;;;;;;5047644;28;20151;-64
2021/04/21 06:36:38;;;;;;;8.60;4.45;;;6.60;87.80;;;;;;5054013;28;20053;-64
2021/04/21 06:39:07;;;;;;;10.35;4.10;;;6.70;87.50;;;;;;5051983;28;20054;-64
2021/04/21 06:41:34;;;;;;;12.68;4.63;;;6.90;87.30;;;;;;5040130;28;20053;-64
2021/04/21 06:44:01;;;;;;;11.98;4.88;;;7.00;87.00;;;;;;5054457;28;20057;-65
2021/04/21 06:46:29;;;;;;;14.40;4.30;;;7.20;86.60;;;;;;5059567;28;20052;-64
2021/04/21 06:48:58;;;;;;;9.68;5.47;;;7.20;86.30;;;;;;5052991;28;20093;-64
2021/04/21 06:51:29;;;;;;;10.63;4.90;;;7.30;86.30;;;;;;5060504;28;20053;-65
2021/04/21 06:53:58;;;;;;;8.73;4.75;;;7.40;85.80;;;;;;5053425;28;20064;-65
2021/04/21 06:56:31;;;;;;;9.95;4.28;;;7.60;85.50;;;;;;5045528;28;20054;-64
2021/04/21 06:58:58;;;;;;;9.93;4.53;;;7.70;85.20;;;;;;5056745;28;20076;-63
2021/04/21 07:01:28;;;;;;;8.18;4.32;;;7.80;85.10;;;;;;5059107;28;20281;-65
2021/04/21 07:04:13;;;;;;;10.27;5.07;;;7.90;84.90;;;;;;5057219;28;20052;-64
2021/04/21 07:06:40;;;;;;;9.60;4.70;;;7.90;84.70;;;;;;5060798;28;20055;-64
2021/04/21 07:09:14;;;;;;;10.52;4.82;;;8.00;84.60;;;;;;5054520;28;20310;-65
2021/04/21 07:11:41;;;;;;;8.73;4.68;;;8.10;84.40;;;;;;5052984;28;20123;-64
2021/04/21 07:14:17;;;;;;;14.00;5.07;;;8.20;84.50;;;;;;5060386;28;20049;-64
2021/04/21 07:16:45;;;;;;;10.35;5.70;;;8.30;84.40;;;;;;5056956;28;20262;-64
2021/04/21 07:19:13;;;;;;;7.45;4.32;;;8.50;84.20;;;;;;5054775;28;20053;-65
2021/04/21 07:21:41;;;;;;;8.68;4.57;;;8.60;83.90;;;;;;5057849;28;20049;-65
2021/04/21 07:24:17;;;;;;;9.00;4.95;;;8.80;83.10;;;;;;5054335;28;20124;-65
2021/04/21 07:26:46;;;;;;;10.02;5.00;;;8.90;82.80;;;;;;5057158;28;20214;-65
2021/04/21 07:29:18;;;;;;;10.95;5.50;;;9.00;82.70;;;;;;5049122;28;20098;-65
2021/04/21 07:31:45;;;;;;;10.32;4.35;;;9.10;82.70;;;;;;5056948;28;20056;-65
2021/04/21 07:34:13;;;;;;;9.85;5.28;;;9.20;82.30;;;;;;5053301;28;20319;-65
2021/04/21 07:36:48;;;;;;;9.25;5.15;;;9.30;81.40;;;;;;5056507;28;20041;-65
2021/04/21 07:39:17;;;;;;;12.23;5.10;;;9.50;81.00;;;;;;5054883;28;20241;-65
2021/04/21 07:41:46;;;;;;;10.02;4.57;;;9.60;81.10;;;;;;5055705;28;20049;-65
2021/04/21 07:44:30;;;;;;;11.25;4.65;;;9.70;80.60;;;;;;5062872;28;20045;-66
2021/04/21 07:47:10;;;;;;;11.35;4.90;;;9.80;80.30;;;;;;5051889;28;20045;-65
2021/04/21 07:49:38;;;;;;;9.40;5.03;;;10.00;79.60;;;;;;5046155;28;20091;-65
2021/04/21 07:52:06;;;;;;;11.32;5.25;;;10.10;79.00;;;;;;5047351;28;20169;-65
2021/04/21 07:54:35;;;;;;;9.60;4.57;;;10.30;78.50;;;;;;5057296;28;20123;-65
2021/04/21 07:57:11;;;;;;;9.70;5.03;;;10.40;79.00;;;;;;5054700;28;20064;-65
2021/04/21 07:59:41;;;;;;;9.07;4.60;;;10.60;77.60;;;;;;5052823;28;20123;-65
2021/04/21 08:02:30;;;;;;;14.02;6.72;;;10.70;76.10;;;;;;5058788;28;20049;-66
2021/04/21 08:04:59;;;;;;;12.32;5.20;;;10.90;75.90;;;;;;5044407;28;20053;-66
2021/04/21 08:07:32;;;;;;;8.27;4.63;;;11.00;75.00;;;;;;5045048;28;20048;-65
2021/04/21 08:10:05;;;;;;;11.00;5.03;;;11.20;74.60;;;;;;5053642;28;20065;-65
2021/04/21 08:12:37;;;;;;;8.85;4.82;;;11.40;73.90;;;;;;5047725;28;20060;-66
2021/04/21 08:15:11;;;;;;;9.60;4.82;;;11.60;72.00;;;;;;5058465;28;20046;-67
2021/04/21 08:17:52;;;;;;;9.57;4.57;;;11.80;72.20;;;;;;5068883;28;20061;-65
2021/04/21 08:20:33;;;;;;;11.35;4.32;;;12.00;71.00;;;;;;5056268;28;20064;-66
2021/04/21 08:23:01;;;;;;;8.20;4.13;;;12.10;70.90;;;;;;5053647;28;20330;-66
2021/04/21 08:25:32;;;;;;;9.90;4.50;;;12.30;71.90;;;;;;5054353;28;20084;-65
2021/04/21 08:28:00;;;;;;;8.73;4.20;;;12.50;70.10;;;;;;5062148;28;20075;-66
2021/04/21 08:30:31;;;;;;;9.20;4.35;;;12.60;70.00;;;;;;5058839;28;20045;-66
2021/04/21 08:32:59;;;;;;;8.88;4.22;;;12.80;69.90;;;;;;5061371;28;20066;-65
2021/04/21 08:35:26;;;;;;;9.00;4.97;;;13.00;69.50;;;;;;5058374;28;20077;-65
2021/04/21 08:37:53;;;;;;;7.40;3.97;;;13.10;69.20;;;;;;5055556;28;20061;-65
2021/04/21 08:40:24;;;;;;;7.30;3.65;;;13.20;68.80;;;;;;5048684;28;20103;-65
2021/04/21 08:42:58;;;;;;;8.18;4.45;;;13.30;68.70;;;;;;5043697;28;20317;-65
2021/04/21 08:45:26;;;;;;;8.60;4.15;;;13.60;68.70;;;;;;5056868;28;20049;-66
2021/04/21 08:47:55;;;;;;;9.05;4.40;;;13.70;67.70;;;;;;5056768;28;20057;-66
2021/04/21 08:50:24;;;;;;;7.72;4.15;;;13.80;67.20;;;;;;5057343;28;20267;-66
2021/04/21 08:52:55;;;;;;;10.70;4.03;;;13.90;66.20;;;;;;5056205;28;20341;-66
2021/04/21 08:55:24;;;;;;;9.50;4.70;;;14.00;64.60;;;;;;5042658;28;20050;-66
2021/04/21 08:57:52;;;;;;;10.27;5.03;;;14.10;64.90;;;;;;5066030;28;20044;-66
2021/04/21 09:00:20;;;;;;;9.43;4.50;;;14.20;63.60;;;;;;5037248;28;20052;-66
2021/04/21 09:02:47;;;;;;;9.68;5.45;;;14.50;63.20;;;;;;5064154;28;20060;-66
2021/04/21 09:05:17;;;;;;;10.00;4.20;;;14.70;60.50;;;;;;5061900;28;20053;-66
2021/04/21 09:07:44;;;;;;;10.23;5.30;;;14.90;60.10;;;;;;5063662;28;20132;-67
2021/04/21 09:10:13;;;;;;;8.88;4.82;;;15.10;60.10;;;;;;5062821;28;20049;-66
2021/04/21 09:12:40;;;;;;;12.02;4.53;;;15.30;59.70;;;;;;5049458;28;20068;-65
2021/04/21 09:15:11;;;;;;;9.35;4.75;;;15.60;58.10;;;;;;5056802;28;20106;-65
2021/04/21 09:17:47;;;;;;;8.93;4.65;;;15.60;56.70;;;;;;5061511;28;20072;-67
2021/04/21 09:20:15;;;;;;;8.27;4.20;;;15.60;56.40;;;;;;5055796;28;20057;-66
2021/04/21 09:23:00;;;;;;;8.98;4.18;;;15.90;55.90;;;;;;5059673;28;20099;-66
2021/04/21 09:25:34;;;;;;;9.10;4.47;;;16.10;54.60;;;;;;5053647;28;20061;-66
2021/04/21 09:28:08;;;;;;;8.57;4.97;;;16.40;53.80;;;;;;5055095;28;20356;-66
2021/04/21 09:30:40;;;;;;;9.35;4.90;;;16.20;53.80;;;;;;5060959;28;20083;-67
2021/04/21 09:33:16;;;;;;;8.70;4.97;;;16.20;54.10;;;;;;5061640;28;20112;-67
2021/04/21 09:35:45;;;;;;;11.25;5.03;;;16.10;55.10;;;;;;5062552;28;20115;-66
2021/04/21 09:38:14;;;;;;;9.27;4.57;;;16.30;54.90;;;;;;5057401;28;20231;-65
2021/04/21 09:40:48;;;;;;;7.63;4.70;;;16.50;51.60;;;;;;5061336;28;20083;-66
2021/04/21 09:43:19;;;;;;;8.25;4.50;;;16.70;51.60;;;;;;5061752;28;20049;-66
2021/04/21 09:45:49;;;;;;;10.02;4.63;;;16.90;51.10;;;;;;5059284;28;20049;-66
2021/04/21 09:48:19;;;;;;;8.77;4.75;;;17.00;51.10;;;;;;5063279;28;20124;-66
2021/04/21 09:50:56;;;;;;;6.55;4.00;;;17.30;50.20;;;;;;5059943;28;20167;-66
2021/04/21 09:53:26;;;;;;;7.13;4.45;;;17.70;48.60;;;;;;5063624;28;20057;-66
2021/04/21 09:56:01;;;;;;;8.25;4.25;;;18.00;47.20;;;;;;5054030;28;20382;-66
2021/04/21 09:58:34;;;;;;;11.23;5.05;;;18.00;46.80;;;;;;5062866;28;20071;-66
2021/04/21 10:01:29;;;;;;;12.00;5.25;;;18.10;45.00;;;;;;5058727;28;20040;-67
2021/04/21 10:04:10;;;;;;;7.68;4.18;;;18.00;46.50;;;;;;5051634;28;20069;-67
2021/04/21 10:06:37;;;;;;;12.55;5.32;;;18.00;46.00;;;;;;5064455;28;20102;-66
2021/04/21 10:09:25;;;;;;;8.98;4.90;;;18.10;45.90;;;;;;5067262;28;20060;-67
2021/04/21 10:12:13;;;;;;;8.38;4.25;;;18.10;45.10;;;;;;5062023;28;20344;-67
2021/04/21 10:14:42;;;;;;;10.52;4.53;;;18.10;45.80;;;;;;5060418;28;20063;-66
2021/04/21 10:17:12;;;;;;;9.63;4.80;;;18.90;45.40;;;;;;5058149;28;20055;-65
2021/04/21 10:19:41;;;;;;;13.77;6.30;;;20.10;42.60;;;;;;5057317;28;20217;-66
2021/04/21 10:22:11;;;;;;;12.70;4.53;;;19.70;41.90;;;;;;5052607;28;20056;-66
2021/04/21 10:24:39;;;;;;;8.95;4.90;;;21.10;39.30;;;;;;5054753;28;20094;-66
2021/04/21 10:27:11;;;;;;;7.25;4.40;;;23.20;36.50;;;;;;5060538;28;20057;-66
2021/04/21 10:29:40;;;;;;;11.85;5.18;;;23.90;34.50;;;;;;5053914;28;20342;-67
2021/04/21 10:32:07;;;;;;;8.98;4.93;;;22.60;35.80;;;;;;5056255;28;20048;-67
2021/04/21 10:34:36;;;;;;;12.27;5.13;;;22.00;36.30;;;;;;5062930;28;20064;-66
2021/04/21 10:37:04;;;;;;;11.02;4.82;;;23.10;35.00;;;;;;5061536;28;20056;-68
2021/04/21 10:39:33;;;;;;;9.13;5.00;;;22.80;34.90;;;;;;5059962;28;20235;-66
2021/04/21 10:42:06;;;;;;;11.02;5.40;;;23.30;33.50;;;;;;5063339;28;20083;-66
2021/04/21 10:44:33;;;;;;;8.25;5.32;;;23.60;32.50;;;;;;5058998;28;20054;-67
2021/04/21 10:47:11;;;;;;;9.55;5.05;;;23.00;34.10;;;;;;5055475;28;20259;-65
2021/04/21 10:49:54;;;;;;;8.48;4.95;;;23.10;33.50;;;;;;5056924;28;20103;-67
2021/04/21 10:52:23;;;;;;;8.65;4.55;;;25.60;30.60;;;;;;5049916;28;20224;-66
2021/04/21 10:54:53;;;;;;;11.30;4.45;;;27.60;27.40;;;;;;5045743;28;20107;-67
2021/04/21 10:57:31;;;;;;;8.45;5.03;;;28.20;26.70;;;;;;5045877;28;20359;-66
2021/04/21 11:00:18;;;;;;;8.30;4.82;;;27.80;26.40;;;;;;5051893;28;20064;-67
2021/04/21 11:03:04;;;;;;;12.25;5.47;;;29.00;24.80;;;;;;5056412;28;20239;-67
2021/04/21 11:05:52;;;;;;;9.30;5.05;;;29.40;24.70;;;;;;5059704;28;20049;-67
2021/04/21 11:08:21;;;;;;;12.23;5.05;;;29.60;24.60;;;;;;5048042;28;20054;-67
2021/04/21 11:10:51;;;;;;;8.57;4.85;;;30.10;23.60;;;;;;5051213;28;20052;-67
2021/04/21 11:13:38;;;;;;;9.23;5.10;;;28.60;24.80;;;;;;5051114;28;20355;-66
2021/04/21 11:16:08;;;;;;;7.82;5.18;;;29.40;23.50;;;;;;5058858;28;20041;-66
2021/04/21 11:18:35;;;;;;;;;;;27.50;25.90;;;;;;5052373;28;20053;-66
2021/04/21 11:21:07;;;;;;;8.88;4.78;;;26.30;27.10;;;;;;5056782;28;19963;-67
2021/04/21 11:23:55;;;;;;;9.55;5.28;;;25.40;28.20;;;;;;5054513;28;20080;-66
2021/04/21 11:26:34;;;;;;;10.48;5.28;;;24.90;28.60;;;;;;5051454;28;20057;-67
2021/04/21 11:29:04;;;;;;;9.17;5.07;;;24.10;29.80;;;;;;5050377;28;20282;-66
2021/04/21 11:32:09;;;;;;;8.38;4.68;;;23.70;30.80;;;;;;5050800;28;20473;-66
2021/04/21 11:34:40;;;;;;;9.20;5.03;;;23.00;31.60;;;;;;5051926;28;20057;-65
2021/04/21 11:37:13;;;;;;;8.27;5.30;;;22.00;32.80;;;;;;5057021;28;20056;-67
2021/04/21 11:40:25;;;;;;;10.23;5.97;;;21.40;34.40;;;;;;5050596;28;20124;-67
2021/04/21 11:42:52;;;;;;;7.47;4.97;;;21.60;34.10;;;;;;5060191;28;20473;-65
2021/04/21 11:45:29;;;;;;;10.30;5.72;;;20.80;34.90;;;;;;5051014;28;20060;-66
2021/04/21 11:48:18;;;;;;;10.45;5.60;;;20.30;35.90;;;;;;5055486;28;20060;-66
2021/04/21 11:50:47;;;;;;;13.20;5.78;;;20.70;34.90;;;;;;5052920;28;20099;-66
2021/04/21 11:53:19;;;;;;;11.95;5.05;;;20.50;35.00;;;;;;5056400;28;20347;-65
2021/04/21 11:55:55;;;;;;;10.52;5.38;;;20.50;36.00;;;;;;5052339;28;20588;-66
2021/04/21 11:58:25;;;;;;;8.85;4.80;;;20.50;35.00;;;;;;5054678;28;20041;-66
2021/04/21 12:00:55;;;;;;;8.27;5.03;;;20.60;35.50;;;;;;5050396;28;20055;-65
2021/04/21 12:03:27;;;;;;;7.80;4.35;;;21.00;35.20;;;;;;5044855;28;20049;-66
2021/04/21 12:05:57;;;;;;;11.63;5.15;;;21.60;34.90;;;;;;5060321;28;20139;-66
2021/04/21 12:08:27;;;;;;;10.40;5.57;;;22.10;33.30;;;;;;5046621;28;20060;-66
2021/04/21 12:10:56;;;;;;;9.55;5.35;;;21.40;34.10;;;;;;5061347;28;20336;-65
2021/04/21 12:13:27;;;;;;;10.68;5.68;;;21.10;35.30;;;;;;5058257;28;20103;-66
2021/04/21 12:15:59;;;;;;;8.43;4.85;;;20.60;35.10;;;;;;5041283;28;20053;-65
2021/04/21 12:18:38;;;;;;;8.70;5.05;;;20.10;36.00;;;;;;5050196;28;20063;-66
2021/04/21 12:21:24;;;;;;;10.40;5.53;;;19.80;36.10;;;;;;5026791;28;20077;-66
2021/04/21 12:23:54;;;;;;;9.30;5.15;;;19.60;36.10;;;;;;5060294;28;20056;-65
2021/04/21 12:26:24;;;;;;;10.35;5.40;;;19.20;37.00;;;;;;5038236;28;20057;-66
2021/04/21 12:28:54;;;;;;;11.18;5.32;;;19.40;37.00;;;;;;5057372;28;20063;-65
2021/04/21 12:31:23;;;;;;;8.90;4.30;;;19.50;38.40;;;;;;5058445;28;20053;-66
2021/04/21 12:33:53;;;;;;;9.40;4.28;;;19.40;39.20;;;;;;5049785;28;20072;-66
2021/04/21 12:36:24;;;;;;;10.15;5.20;;;19.40;38.20;;;;;;5053946;28;20247;-66
2021/04/21 12:39:06;;;;;;;8.38;4.90;;;19.70;39.30;;;;;;5056880;28;20056;-66
2021/04/21 12:41:34;;;;;;;9.18;4.60;;;19.90;38.50;;;;;;5055355;28;20072;-66
2021/04/21 12:44:16;;;;;;;9.23;4.47;;;19.70;39.30;;;;;;5051539;28;20053;-66
2021/04/21 12:46:47;;;;;;;9.50;4.50;;;19.60;38.80;;;;;;5056405;28;20037;-66
2021/04/21 12:49:13;;;;;;;;;;;19.80;37.90;;;;;;5040092;28;20044;-66
2021/04/21 12:51:46;;;;;;;10.50;4.70;;;19.90;37.20;;;;;;5056624;28;19916;-66
2021/04/21 12:54:35;;;;;;;10.23;4.47;;;20.00;37.20;;;;;;5060490;28;20048;-66
2021/04/21 12:57:06;;;;;;;8.15;4.28;;;20.20;36.10;;;;;;5039426;28;20060;-65
2021/04/21 12:59:45;;;;;;;12.35;5.25;;;20.20;36.00;;;;;;5053128;28;20072;-65
2021/04/21 13:02:16;;;;;;;9.02;4.43;;;20.40;35.60;;;;;;5045993;28;20056;-67
2021/04/21 13:04:44;;;;;;;9.13;4.45;;;20.60;35.00;;;;;;5051602;28;20106;-65
2021/04/21 13:07:13;;;;;;;7.57;5.20;;;20.90;35.10;;;;;;5053399;28;20265;-66
2021/04/21 13:09:41;;;;;;;10.35;5.43;;;20.50;36.00;;;;;;5053027;28;20112;-66
2021/04/21 13:12:11;;;;;;;8.98;4.18;;;21.70;34.10;;;;;;5051520;28;20055;-66
2021/04/21 13:14:40;;;;;;;10.48;4.68;;;24.20;29.90;;;;;;5050271;28;20060;-66
2021/04/21 13:17:09;;;;;;;9.00;4.72;;;24.40;29.10;;;;;;5049233;28;20049;-66
2021/04/21 13:19:37;;;;;;;9.10;4.43;;;24.10;29.90;;;;;;5047883;28;20063;-66
2021/04/21 13:22:08;;;;;;;11.25;5.10;;;24.70;29.40;;;;;;5048119;28;20042;-66
2021/04/21 13:24:44;;;;;;;7.57;4.43;;;26.30;27.30;;;;;;5045425;28;20053;-66
2021/04/21 13:27:21;;;;;;;7.32;4.65;;;26.80;25.40;;;;;;5049270;28;20114;-66
2021/04/21 13:29:57;;;;;;;8.85;4.85;;;26.40;26.20;;;;;;5046908;28;20049;-67
2021/04/21 13:32:25;;;;;;;6.70;4.53;;;27.00;25.50;;;;;;5050461;28;20053;-67
2021/04/21 13:34:55;;;;;;;10.48;4.90;;;27.50;24.70;;;;;;5047849;28;20056;-67